Time;durP1;ratioP1;P1;durP2;ratioP2;P2;SDS_P1;SDS_P2;PMS_P1;PMS_P2;Temp;Humidity;BMP_temperature;BMP_pressure;BME280_temperature;BME280_humidity;BME280_pressure;Samples;Min_cycle;Max_cycle;Signal;HPM_P1;HPM_P2
2024/04/20 00:00:25;;;;;;;8.95;3.88;;;;;;;;;;5408191;26;20027;-64
2024/04/20 00:02:51;;;;;;;6.00;3.33;;;;;;;;;;5388756;26;20014;-64
2024/04/20 00:05:18;;;;;;;5.00;2.97;;;;;;;;;;5414314;26;20039;-64
2024/04/20 00:07:46;;;;;;;7.45;3.97;;;;;;;;;;5428689;26;20014;-63
2024/04/20 00:10:12;;;;;;;10.45;4.32;;;;;;;;;;5399934;26;20320;-64
2024/04/20 00:12:39;;;;;;;7.78;4.10;;;;;;;;;;5406463;26;20003;-63
2024/04/20 00:15:05;;;;;;;7.05;3.67;;;;;;;;;;5415037;26;20084;-64
2024/04/20 00:17:32;;;;;;;6.40;3.35;;;;;;;;;;5421158;26;19999;-64
2024/04/20 00:19:58;;;;;;;4.80;3.75;;;;;;;;;;5415050;26;20420;-63
2024/04/20 00:22:24;;;;;;;6.50;3.42;;;;;;;;;;5392821;26;20083;-64
2024/04/20 00:24:50;;;;;;;3.25;2.50;;;;;;;;;;5421817;26;20007;-63
2024/04/20 00:27:17;;;;;;;6.22;3.20;;;;;;;;;;5388918;26;20010;-64
2024/04/20 00:29:43;;;;;;;3.63;2.67;;;;;;;;;;5420524;26;19999;-64
2024/04/20 00:32:09;;;;;;;4.25;3.20;;;;;;;;;;5385546;26;19995;-63
2024/04/20 00:34:36;;;;;;;7.35;3.25;;;;;;;;;;5428569;26;19998;-63
2024/04/20 00:37:03;;;;;;;3.90;3.42;;;;;;;;;;5413168;26;20405;-64
2024/04/20 00:39:31;;;;;;;5.93;3.33;;;;;;;;;;5403125;26;20038;-64
2024/04/20 00:41:57;;;;;;;8.25;3.25;;;;;;;;;;5418755;26;20010;-64
2024/04/20 00:44:24;;;;;;;4.45;2.95;;;;;;;;;;5426788;26;20225;-68
2024/04/20 00:46:52;;;;;;;8.90;3.35;;;;;;;;;;5423798;26;19999;-68
2024/04/20 00:49:18;;;;;;;9.93;3.80;;;;;;;;;;5421532;26;20014;-68
2024/04/20 00:51:44;;;;;;;6.80;3.65;;;;;;;;;;5417143;26;20427;-68
2024/04/20 00:54:14;;;;;;;7.90;4.10;;;;;;;;;;5428212;26;20546;-67
2024/04/20 00:56:40;;;;;;;8.32;3.92;;;;;;;;;;5426149;26;20855;-68
2024/04/20 00:59:07;;;;;;;5.63;3.08;;;;;;;;;;5429014;26;20003;-68
2024/04/20 01:01:33;;;;;;;6.18;3.83;;;;;;;;;;5419476;26;20334;-68
2024/04/20 01:03:59;;;;;;;8.27;3.40;;;;;;;;;;5421866;26;21026;-69
2024/04/20 01:06:25;;;;;;;4.07;3.15;;;;;;;;;;5397612;26;19999;-69
2024/04/20 01:08:52;;;;;;;5.00;3.72;;;;;;;;;;5421678;26;20521;-68
2024/04/20 01:11:18;;;;;;;7.18;3.22;;;;;;;;;;5409704;26;20000;-68
2024/04/20 01:13:51;;;;;;;4.80;3.30;;;;;;;;;;5427171;26;20014;-69
2024/04/20 01:16:17;;;;;;;3.50;2.95;;;;;;;;;;5420440;26;21242;-68
2024/04/20 01:18:44;;;;;;;3.83;2.30;;;;;;;;;;5416570;26;20594;-69
2024/04/20 01:21:11;;;;;;;13.32;3.33;;;;;;;;;;5425035;26;20454;-69
2024/04/20 01:23:38;;;;;;;3.80;3.17;;;;;;;;;;5395429;26;20003;-68
2024/04/20 01:26:04;;;;;;;2.63;2.13;;;;;;;;;;5420741;26;20002;-68
2024/04/20 01:28:30;;;;;;;4.90;2.67;;;;;;;;;;5423533;26;20280;-69
2024/04/20 01:30:56;;;;;;;2.85;2.38;;;;;;;;;;5416661;26;20579;-69
2024/04/20 01:33:22;;;;;;;5.82;2.45;;;;;;;;;;5429619;26;19998;-68
2024/04/20 01:35:50;;;;;;;4.82;2.65;;;;;;;;;;5424463;26;20014;-68
2024/04/20 01:38:17;;;;;;;5.38;2.97;;;;;;;;;;5414342;26;20462;-68
2024/04/20 01:40:43;;;;;;;5.38;3.08;;;;;;;;;;5412841;26;20010;-68
2024/04/20 01:43:09;;;;;;;9.57;3.08;;;;;;;;;;5383889;26;20003;-69
2024/04/20 01:45:35;;;;;;;6.15;3.03;;;;;;;;;;5427490;26;20035;-69
2024/04/20 01:48:02;;;;;;;7.60;2.72;;;;;;;;;;5421998;26;20003;-68
2024/04/20 01:50:28;;;;;;;2.67;2.47;;;;;;;;;;5415946;26;20459;-69
2024/04/20 01:52:54;;;;;;;9.15;3.15;;;;;;;;;;5400732;26;20071;-68
2024/04/20 01:55:20;;;;;;;4.95;3.03;;;;;;;;;;5418484;26;20107;-68
2024/04/20 01:57:46;;;;;;;4.75;2.92;;;;;;;;;;5415300;26;20014;-69
2024/04/20 02:00:13;;;;;;;6.00;3.17;;;;;;;;;;5426167;26;20010;-69
2024/04/20 02:02:39;;;;;;;5.70;2.78;;;;;;;;;;5428234;26;20656;-69
2024/04/20 02:05:06;;;;;;;5.32;3.47;;;;;;;;;;5398221;26;19998;-68
2024/04/20 02:07:32;;;;;;;7.13;2.35;;;;;;;;;;5419816;26;20026;-69
2024/04/20 02:09:58;;;;;;;7.07;2.80;;;;;;;;;;5423387;26;19999;-68
2024/04/20 02:12:24;;;;;;;5.95;2.50;;;;;;;;;;5396405;26;20025;-69
2024/04/20 02:14:51;;;;;;;4.38;2.67;;;;;;;;;;5386273;26;20461;-68
2024/04/20 02:17:17;;;;;;;4.20;2.90;;;;;;;;;;5383669;26;20727;-69
2024/04/20 02:19:43;;;;;;;5.90;2.50;;;;;;;;;;5426364;26;20425;-68
2024/04/20 02:22:09;;;;;;;4.43;2.35;;;;;;;;;;5419545;26;20383;-68
2024/04/20 02:24:36;;;;;;;5.70;3.20;;;;;;;;;;5430295;26;20009;-68
2024/04/20 02:27:02;;;;;;;2.97;2.63;;;;;;;;;;5420417;26;20453;-68
2024/04/20 02:29:28;;;;;;;6.15;3.20;;;;;;;;;;5423537;26;20007;-68
2024/04/20 02:31:54;;;;;;;2.95;2.25;;;;;;;;;;5424949;26;20551;-68
2024/04/20 02:34:20;;;;;;;6.72;3.15;;;;;;;;;;5421502;26;19999;-68
2024/04/20 02:36:46;;;;;;;4.95;2.72;;;;;;;;;;5422296;26;20423;-68
2024/04/20 02:39:13;;;;;;;4.38;3.17;;;;;;;;;;5421287;26;19999;-68
2024/04/20 02:41:39;;;;;;;3.20;2.75;;;;;;;;;;5423487;26;20015;-68
2024/04/20 02:44:06;;;;;;;6.10;3.20;;;;;;;;;;5414065;26;20030;-68
2024/04/20 02:46:32;;;;;;;8.05;3.72;;;;;;;;;;5388565;26;20003;-63
2024/04/20 02:48:58;;;;;;;4.28;2.47;;;;;;;;;;5389776;26;19995;-62
2024/04/20 02:51:24;;;;;;;4.82;2.75;;;;;;;;;;5417394;26;20042;-63
2024/04/20 02:53:51;;;;;;;6.45;2.65;;;;;;;;;;5419338;26;20627;-63
2024/04/20 02:56:17;;;;;;;4.07;2.70;;;;;;;;;;5404720;26;20461;-62
2024/04/20 02:58:43;;;;;;;3.45;2.53;;;;;;;;;;5419989;26;20337;-62
2024/04/20 03:01:09;;;;;;;5.53;3.10;;;;;;;;;;5422274;26;19999;-64
2024/04/20 03:03:37;;;;;;;5.00;2.47;;;;;;;;;;5426334;26;20401;-63
2024/04/20 03:06:04;;;;;;;3.65;2.45;;;;;;;;;;5422385;26;20010;-63
2024/04/20 03:08:31;;;;;;;3.92;2.55;;;;;;;;;;5383435;26;20006;-63
2024/04/20 03:10:57;;;;;;;3.20;2.72;;;;;;;;;;5416126;26;20003;-62
2024/04/20 03:13:23;;;;;;;3.75;2.58;;;;;;;;;;5414347;26;20064;-63
2024/04/20 03:15:58;;;;;;;4.97;2.55;;;;;;;;;;5388239;26;19999;-63
2024/04/20 03:18:24;;;;;;;3.58;2.60;;;;;;;;;;5406218;26;19991;-63
2024/04/20 03:20:51;;;;;;;4.55;2.28;;;;;;;;;;5389669;26;20011;-63
2024/04/20 03:23:18;;;;;;;9.60;3.13;;;;;;;;;;5416509;26;20002;-63
2024/04/20 03:25:44;;;;;;;4.20;3.10;;;;;;;;;;5415136;26;20080;-62
2024/04/20 03:28:10;;;;;;;3.28;2.25;;;;;;;;;;5390462;26;20518;-63
2024/04/20 03:30:36;;;;;;;3.42;2.47;;;;;;;;;;5423178;26;20422;-62
2024/04/20 03:33:03;;;;;;;3.33;2.55;;;;;;;;;;5418363;26;20710;-63
2024/04/20 03:35:29;;;;;;;12.07;2.42;;;;;;;;;;5416153;26;20038;-64
2024/04/20 03:37:55;;;;;;;3.83;2.78;;;;;;;;;;5386510;26;20324;-62
2024/04/20 03:40:21;;;;;;;2.55;2.30;;;;;;;;;;5416436;26;20007;-63
2024/04/20 03:42:47;;;;;;;7.80;2.80;;;;;;;;;;5416980;26;20003;-63
2024/04/20 03:45:14;;;;;;;4.43;3.00;;;;;;;;;;5406576;26;20010;-62
2024/04/20 03:47:40;;;;;;;3.05;1.98;;;;;;;;;;5414220;26;19996;-62
2024/04/20 03:50:06;;;;;;;6.57;2.67;;;;;;;;;;5418551;26;20576;-62
2024/04/20 03:52:32;;;;;;;4.38;2.60;;;;;;;;;;5408832;26;19996;-63
2024/04/20 03:54:58;;;;;;;5.13;2.67;;;;;;;;;;5415208;26;20069;-62
2024/04/20 03:57:28;;;;;;;7.85;3.20;;;;;;;;;;5405989;26;20012;-62
2024/04/20 03:59:55;;;;;;;5.40;2.40;;;;;;;;;;5416261;26;20307;-62
2024/04/20 04:02:26;;;;;;;4.95;2.55;;;;;;;;;;5411663;26;20283;-63
2024/04/20 04:04:53;;;;;;;6.05;3.05;;;;;;;;;;5384977;26;20064;-63
2024/04/20 04:07:20;;;;;;;3.22;2.03;;;;;;;;;;5431071;26;19999;-62
2024/04/20 04:09:46;;;;;;;5.05;2.90;;;;;;;;;;5435618;26;20026;-62
2024/04/20 04:12:13;;;;;;;4.70;3.28;;;;;;;;;;5417526;26;20000;-62
2024/04/20 04:14:40;;;;;;;4.47;2.30;;;;;;;;;;5375293;26;20015;-63
2024/04/20 04:17:06;;;;;;;6.90;2.60;;;;;;;;;;5423495;26;20008;-62
2024/04/20 04:19:32;;;;;;;5.70;2.70;;;;;;;;;;5384599;26;19998;-62
2024/04/20 04:21:59;;;;;;;5.40;2.97;;;;;;;;;;5425666;26;19996;-62
2024/04/20 04:24:25;;;;;;;7.68;3.00;;;;;;;;;;5414969;26;20018;-62
2024/04/20 04:26:53;;;;;;;5.03;3.60;;;;;;;;;;5429122;26;20441;-63
2024/04/20 04:29:19;;;;;;;4.00;3.25;;;;;;;;;;5432579;26;20565;-62
2024/04/20 04:31:48;;;;;;;3.95;2.58;;;;;;;;;;5391298;26;20075;-63
2024/04/20 04:34:14;;;;;;;5.50;2.90;;;;;;;;;;5421893;26;20392;-63
2024/04/20 04:36:40;;;;;;;5.63;2.88;;;;;;;;;;5419796;26;20644;-62
2024/04/20 04:39:08;;;;;;;3.63;2.25;;;;;;;;;;5421484;26;20023;-63
2024/04/20 04:41:34;;;;;;;6.78;2.28;;;;;;;;;;5423751;26;20587;-63
2024/04/20 04:44:00;;;;;;;9.95;2.80;;;;;;;;;;5418136;26;19991;-63
2024/04/20 04:46:26;;;;;;;3.88;3.17;;;;;;;;;;5420702;26;20417;-63
2024/04/20 04:48:52;;;;;;;2.95;2.13;;;;;;;;;;5412582;26;20328;-63
2024/04/20 04:51:20;;;;;;;4.05;2.47;;;;;;;;;;5420319;26;20077;-62
2024/04/20 04:53:46;;;;;;;3.45;2.88;;;;;;;;;;5394602;26;20081;-62
2024/04/20 04:56:13;;;;;;;6.63;3.03;;;;;;;;;;5425696;26;20507;-62
2024/04/20 04:58:39;;;;;;;4.15;3.25;;;;;;;;;;5414746;26;20176;-62
2024/04/20 05:01:05;;;;;;;4.18;2.53;;;;;;;;;;5405154;26;20027;-63
2024/04/20 05:03:32;;;;;;;3.10;2.50;;;;;;;;;;5422838;26;20503;-63
2024/04/20 05:05:58;;;;;;;6.43;1.92;;;;;;;;;;5392313;26;20435;-63
2024/04/20 05:08:26;;;;;;;4.95;2.72;;;;;;;;;;5418470;26;20087;-63
2024/04/20 05:10:53;;;;;;;2.83;2.45;;;;;;;;;;5426790;26;19999;-63
2024/04/20 05:13:19;;;;;;;8.82;3.08;;;;;;;;;;5425427;26;20003;-63
2024/04/20 05:15:45;;;;;;;6.10;3.17;;;;;;;;;;5409863;26;20074;-63
2024/04/20 05:18:13;;;;;;;4.88;3.10;;;;;;;;;;5398488;26;20012;-63
2024/04/20 05:20:39;;;;;;;3.03;2.60;;;;;;;;;;5422710;26;20003;-63
2024/04/20 05:23:06;;;;;;;4.13;2.58;;;;;;;;;;5426656;26;20050;-63
2024/04/20 05:25:32;;;;;;;5.13;2.58;;;;;;;;;;5419085;26;19996;-70
2024/04/20 05:27:59;;;;;;;2.53;2.33;;;;;;;;;;5417823;26;20014;-70
2024/04/20 05:30:27;;;;;;;5.45;2.83;;;;;;;;;;5390385;26;20118;-63
2024/04/20 05:32:55;;;;;;;4.00;2.88;;;;;;;;;;5420325;26;20053;-64
2024/04/20 05:35:21;;;;;;;6.43;2.47;;;;;;;;;;5395411;26;20091;-63
2024/04/20 05:37:47;;;;;;;7.72;3.08;;;;;;;;;;5411608;26;20011;-68
2024/04/20 05:40:14;;;;;;;7.35;2.88;;;;;;;;;;5420840;26;20009;-70
2024/04/20 05:42:40;;;;;;;6.07;2.40;;;;;;;;;;5427813;26;20018;-71
2024/04/20 05:45:07;;;;;;;4.47;2.60;;;;;;;;;;5386178;26;20030;-64
2024/04/20 05:47:34;;;;;;;3.25;2.72;;;;;;;;;;5413490;26;20022;-65
2024/04/20 05:50:00;;;;;;;3.85;2.58;;;;;;;;;;5415999;26;20001;-64
2024/04/20 05:52:26;;;;;;;4.15;2.72;;;;;;;;;;5412270;26;20395;-64
2024/04/20 05:54:52;;;;;;;4.20;2.80;;;;;;;;;;5384181;26;19998;-64
2024/04/20 05:57:18;;;;;;;3.17;2.85;;;;;;;;;;5384832;26;20053;-64
2024/04/20 05:59:45;;;;;;;5.20;2.75;;;;;;;;;;5423557;26;19995;-65
2024/04/20 06:02:11;;;;;;;3.53;2.65;;;;;;;;;;5411796;26;20003;-64
2024/04/20 06:04:37;;;;;;;4.72;2.88;;;;;;;;;;5426161;26;20005;-64
2024/04/20 06:07:03;;;;;;;6.03;3.50;;;;;;;;;;5416190;26;20438;-70
2024/04/20 06:09:29;;;;;;;11.15;3.90;;;;;;;;;;5425580;26;20462;-70
2024/04/20 06:11:56;;;;;;;5.25;3.25;;;;;;;;;;5390950;26;20021;-70
2024/04/20 06:14:22;;;;;;;5.15;2.22;;;;;;;;;;5401099;26;20013;-71
2024/04/20 06:16:49;;;;;;;5.72;3.92;;;;;;;;;;5417511;26;20407;-67
2024/04/20 06:19:15;;;;;;;7.25;3.28;;;;;;;;;;5417882;26;20050;-69
2024/04/20 06:21:41;;;;;;;3.50;2.83;;;;;;;;;;5423431;26;20518;-67
2024/04/20 06:24:07;;;;;;;5.00;3.13;;;;;;;;;;5398480;26;20011;-72
2024/04/20 06:26:33;;;;;;;3.30;2.83;;;;;;;;;;5406728;26;20066;-63
2024/04/20 06:29:00;;;;;;;4.30;2.50;;;;;;;;;;5392869;26;19991;-64
2024/04/20 06:31:26;;;;;;;3.88;2.42;;;;;;;;;;5384304;26;20006;-64
2024/04/20 06:33:54;;;;;;;5.50;3.42;;;;;;;;;;5407926;26;20009;-64
2024/04/20 06:36:21;;;;;;;11.13;3.50;;;;;;;;;;5418864;26;19999;-63
2024/04/20 06:38:50;;;;;;;7.82;4.45;;;;;;;;;;5416761;26;19995;-67
2024/04/20 06:41:16;;;;;;;5.72;2.63;;;;;;;;;;5414137;26;21757;-67
2024/04/20 06:43:42;;;;;;;8.13;2.85;;;;;;;;;;5386459;26;20342;-64
2024/04/20 06:46:09;;;;;;;8.52;3.95;;;;;;;;;;5420918;26;19999;-64
2024/04/20 06:48:36;;;;;;;4.88;2.85;;;;;;;;;;5383024;26;20306;-65
2024/04/20 06:51:02;;;;;;;5.35;3.58;;;;;;;;;;5424156;26;20461;-64
2024/04/20 06:53:28;;;;;;;3.38;2.65;;;;;;;;;;5410790;26;20008;-64
2024/04/20 06:55:59;;;;;;;5.88;3.67;;;;;;;;;;5394977;26;20063;-64
2024/04/20 06:58:26;;;;;;;4.30;3.65;;;;;;;;;;5418348;26;20006;-64
2024/04/20 07:00:52;;;;;;;7.35;3.45;;;;;;;;;;5388312;26;19996;-64
2024/04/20 07:03:19;;;;;;;5.15;3.10;;;;;;;;;;5424176;26;20340;-64
2024/04/20 07:05:55;;;;;;;9.45;3.60;;;;;;;;;;5417838;26;21771;-64
2024/04/20 07:08:22;;;;;;;5.75;3.15;;;;;;;;;;5423310;26;20386;-65
2024/04/20 07:10:54;;;;;;;6.35;3.53;;;;;;;;;;5396288;26;20003;-64
2024/04/20 07:13:20;;;;;;;4.28;2.42;;;;;;;;;;5390101;26;19995;-64
2024/04/20 07:15:50;;;;;;;3.83;2.80;;;;;;;;;;5376852;26;20438;-64
2024/04/20 07:18:16;;;;;;;3.05;2.75;;;;;;;;;;5377062;26;20003;-64
2024/04/20 07:20:43;;;;;;;5.43;3.08;;;;;;;;;;5379386;26;20046;-64
2024/04/20 07:23:10;;;;;;;4.45;3.22;;;;;;;;;;5384314;26;20072;-64
2024/04/20 07:25:36;;;;;;;6.28;2.90;;;;;;;;;;5413239;26;20000;-63
2024/04/20 07:28:03;;;;;;;7.97;3.10;;;;;;;;;;5376448;26;20000;-63
2024/04/20 07:30:29;;;;;;;9.80;3.83;;;;;;;;;;5392380;26;19999;-63
2024/04/20 07:32:55;;;;;;;7.93;2.78;;;;;;;;;;5383572;26;20272;-63
2024/04/20 07:35:21;;;;;;;5.07;3.00;;;;;;;;;;5374467;26;20066;-63
2024/04/20 07:37:47;;;;;;;6.53;3.00;;;;;;;;;;5378018;26;20359;-64
2024/04/20 07:40:14;;;;;;;4.80;3.15;;;;;;;;;;5387052;26;19995;-63
2024/04/20 07:42:40;;;;;;;6.13;2.90;;;;;;;;;;5389883;26;20512;-63
2024/04/20 07:45:06;;;;;;;5.72;3.40;;;;;;;;;;5373546;26;20008;-63
2024/04/20 07:47:32;;;;;;;4.85;3.22;;;;;;;;;;5381562;26;22061;-63
2024/04/20 07:49:59;;;;;;;5.60;3.50;;;;;;;;;;5374416;26;19995;-63
2024/04/20 07:52:25;;;;;;;5.18;3.20;;;;;;;;;;5385295;26;19996;-63
2024/04/20 07:54:51;;;;;;;4.70;2.80;;;;;;;;;;5380438;26;20003;-63
2024/04/20 07:57:17;;;;;;;6.28;2.42;;;;;;;;;;5379021;26;20011;-63
2024/04/20 07:59:45;;;;;;;8.23;2.85;;;;;;;;;;5373757;26;20053;-65
2024/04/20 08:02:11;;;;;;;5.38;2.72;;;;;;;;;;5380997;26;20335;-63
2024/04/20 08:04:37;;;;;;;3.38;2.55;;;;;;;;;;5383777;26;19999;-63
2024/04/20 08:07:03;;;;;;;6.88;3.17;;;;;;;;;;5382099;26;20074;-63
2024/04/20 08:09:30;;;;;;;7.75;2.90;;;;;;;;;;5389129;26;20010;-63
2024/04/20 08:11:56;;;;;;;2.45;2.20;;;;;;;;;;5391906;26;19996;-64
2024/04/20 08:14:23;;;;;;;6.15;2.50;;;;;;;;;;5395862;26;20068;-63
2024/04/20 08:16:49;;;;;;;5.50;2.85;;;;;;;;;;5422022;26;19999;-63
2024/04/20 08:19:15;;;;;;;5.32;2.60;;;;;;;;;;5414021;26;20564;-63
2024/04/20 08:21:42;;;;;;;4.10;2.40;;;;;;;;;;5421636;26;20078;-63
2024/04/20 08:24:08;;;;;;;5.35;2.70;;;;;;;;;;5419394;26;20034;-64
2024/04/20 08:26:34;;;;;;;5.75;3.00;;;;;;;;;;5375489;26;20018;-64
2024/04/20 08:29:00;;;;;;;4.30;2.63;;;;;;;;;;5384585;26;20002;-63
2024/04/20 08:31:26;;;;;;;6.07;2.60;;;;;;;;;;5416882;26;20006;-63
2024/04/20 08:33:53;;;;;;;6.95;2.33;;;;;;;;;;5424615;26;20003;-64
2024/04/20 08:36:19;;;;;;;3.40;2.45;;;;;;;;;;5393483;26;19991;-64
2024/04/20 08:38:45;;;;;;;5.50;2.47;;;;;;;;;;5406995;26;20502;-63
2024/04/20 08:41:17;;;;;;;2.80;2.40;;;;;;;;;;5414645;26;20326;-63
2024/04/20 08:43:43;;;;;;;4.65;2.13;;;;;;;;;;5409640;26;20006;-64
2024/04/20 08:46:12;;;;;;;4.43;2.15;;;;;;;;;;5414286;26;20003;-63
2024/04/20 08:48:38;;;;;;;3.30;2.65;;;;;;;;;;5417780;26;20007;-64
2024/04/20 08:51:06;;;;;;;4.15;2.33;;;;;;;;;;5416451;26;20039;-64
2024/04/20 08:53:34;;;;;;;3.35;2.10;;;;;;;;;;5416285;26;20801;-63
2024/04/20 08:56:01;;;;;;;3.50;2.13;;;;;;;;;;5418794;26;19998;-64
2024/04/20 08:58:27;;;;;;;3.85;2.10;;;;;;;;;;5428828;26;20046;-63
2024/04/20 09:00:57;;;;;;;5.25;2.35;;;;;;;;;;5426852;26;20000;-64
2024/04/20 09:03:24;;;;;;;4.60;2.85;;;;;;;;;;5433327;26;20071;-66
2024/04/20 09:05:53;;;;;;;4.10;2.50;;;;;;;;;;5422667;26;20003;-63
2024/04/20 09:08:20;;;;;;;2.33;2.10;;;;;;;;;;5414516;26;20003;-64
2024/04/20 09:10:46;;;;;;;2.42;1.80;;;;;;;;;;5414686;26;20425;-64
2024/04/20 09:13:15;;;;;;;2.88;1.88;;;;;;;;;;5381701;26;20342;-64
2024/04/20 09:15:45;;;;;;;3.00;1.95;;;;;;;;;;5419284;26;20392;-63
2024/04/20 09:18:11;;;;;;;2.80;1.95;;;;;;;;;;5419006;26;20255;-63
2024/04/20 09:20:38;;;;;;;4.28;1.77;;;;;;;;;;5389576;26;20002;-63
2024/04/20 09:23:08;;;;;;;3.67;2.00;;;;;;;;;;5423573;26;19991;-64
2024/04/20 09:25:37;;;;;;;1.98;1.70;;;;;;;;;;5414756;26;19995;-64
2024/04/20 09:28:07;;;;;;;2.58;1.90;;;;;;;;;;5421075;26;20322;-64
2024/04/20 09:30:34;;;;;;;2.33;1.83;;;;;;;;;;5411360;26;20439;-64
2024/04/20 09:33:01;;;;;;;2.88;1.67;;;;;;;;;;5409465;26;20545;-64
2024/04/20 09:35:27;;;;;;;3.72;1.70;;;;;;;;;;5421346;26;19998;-64
2024/04/20 09:37:53;;;;;;;1.98;1.88;;;;;;;;;;5412180;26;20052;-64
2024/04/20 09:40:19;;;;;;;1.92;1.70;;;;;;;;;;5422436;26;20077;-63
2024/04/20 09:42:46;;;;;;;2.00;1.80;;;;;;;;;;5419863;26;20077;-64
2024/04/20 09:45:13;;;;;;;1.50;1.40;;;;;;;;;;5389709;26;20420;-63
2024/04/20 09:47:40;;;;;;;2.28;1.70;;;;;;;;;;5422120;26;20018;-63
2024/04/20 09:50:10;;;;;;;3.10;1.83;;;;;;;;;;5418691;26;19995;-64
2024/04/20 09:52:45;;;;;;;2.40;2.15;;;;;;;;;;5422325;26;20004;-64
2024/04/20 09:55:20;;;;;;;1.67;1.58;;;;;;;;;;5417980;26;20425;-64
2024/04/20 09:57:47;;;;;;;2.10;1.90;;;;;;;;;;5425367;26;20389;-64
2024/04/20 10:00:14;;;;;;;2.13;1.77;;;;;;;;;;5415320;26;20409;-64
2024/04/20 10:02:41;;;;;;;4.30;1.67;;;;;;;;;;5411783;26;19999;-64
2024/04/20 10:05:09;;;;;;;4.15;2.35;;;;;;;;;;5416916;26;20512;-63
2024/04/20 10:07:36;;;;;;;5.95;1.88;;;;;;;;;;5418126;26;20444;-64
2024/04/20 10:10:03;;;;;;;2.20;1.70;;;;;;;;;;5424198;26;20023;-64
2024/04/20 10:12:29;;;;;;;3.63;2.10;;;;;;;;;;5418073;26;20752;-64
2024/04/20 10:14:57;;;;;;;4.50;2.22;;;;;;;;;;5415235;26;20437;-64
2024/04/20 10:17:25;;;;;;;3.67;1.70;;;;;;;;;;5392636;26;20027;-64
2024/04/20 10:19:52;;;;;;;2.33;1.80;;;;;;;;;;5430663;26;20007;-64
2024/04/20 10:22:22;;;;;;;2.17;1.92;;;;;;;;;;5433431;26;20018;-64
2024/04/20 10:24:55;;;;;;;1.80;1.70;;;;;;;;;;5427441;26;20010;-64
2024/04/20 10:27:25;;;;;;;2.58;1.75;;;;;;;;;;5422746;26;20007;-64
2024/04/20 10:29:52;;;;;;;3.30;2.10;;;;;;;;;;5411320;26;20039;-64
2024/04/20 10:32:24;;;;;;;3.55;2.00;;;;;;;;;;5395823;26;19991;-64
2024/04/20 10:34:50;;;;;;;1.90;1.80;;;;;;;;;;5403879;26;19999;-66
2024/04/20 10:37:23;;;;;;;2.00;1.90;;;;;;;;;;5420457;26;20010;-64
2024/04/20 10:39:49;;;;;;;1.88;1.60;;;;;;;;;;5414287;26;19996;-64
2024/04/20 10:42:22;;;;;;;3.25;1.80;;;;;;;;;;5389521;26;19999;-64
2024/04/20 10:44:49;;;;;;;2.35;1.83;;;;;;;;;;5419617;26;19995;-64
2024/04/20 10:47:19;;;;;;;2.03;1.83;;;;;;;;;;5415333;26;19999;-64
2024/04/20 10:49:45;;;;;;;5.10;1.80;;;;;;;;;;5417025;26;20010;-64
2024/04/20 10:52:18;;;;;;;2.13;1.80;;;;;;;;;;5411798;26;20510;-64
2024/04/20 10:54:44;;;;;;;2.60;2.15;;;;;;;;;;5429473;26;20012;-64
2024/04/20 10:57:11;;;;;;;2.63;1.70;;;;;;;;;;5420245;26;20000;-64
2024/04/20 10:59:43;;;;;;;2.83;1.92;;;;;;;;;;5385941;26;20010;-64
2024/04/20 11:02:12;;;;;;;2.53;1.83;;;;;;;;;;5413195;26;19998;-64
2024/04/20 11:04:38;;;;;;;1.67;1.58;;;;;;;;;;5415927;26;19998;-64
2024/04/20 11:07:05;;;;;;;1.85;1.75;;;;;;;;;;5414253;26;20011;-64
2024/04/20 11:09:31;;;;;;;1.50;1.42;;;;;;;;;;5429536;26;19998;-64
2024/04/20 11:12:00;;;;;;;1.83;1.60;;;;;;;;;;5416792;26;20316;-64
2024/04/20 11:14:27;;;;;;;3.30;1.85;;;;;;;;;;5416828;26;20071;-64
2024/04/20 11:16:53;;;;;;;1.85;1.60;;;;;;;;;;5413868;26;20470;-64
2024/04/20 11:19:20;;;;;;;1.70;1.60;;;;;;;;;;5391739;26;20435;-64
2024/04/20 11:21:47;;;;;;;5.45;2.10;;;;;;;;;;5414023;26;19999;-64
2024/04/20 11:24:13;;;;;;;2.90;1.85;;;;;;;;;;5377593;26;20080;-64
2024/04/20 11:26:42;;;;;;;2.60;1.80;;;;;;;;;;5439234;26;20060;-64
2024/04/20 11:29:09;;;;;;;1.90;1.80;;;;;;;;;;5423970;26;20524;-64
2024/04/20 11:31:35;;;;;;;1.92;1.75;;;;;;;;;;5410837;26;20011;-64
2024/04/20 11:34:01;;;;;;;2.22;2.00;;;;;;;;;;5411355;26;20047;-64
2024/04/20 11:36:30;;;;;;;2.63;1.65;;;;;;;;;;5378154;26;20107;-64
2024/04/20 11:39:06;;;;;;;2.60;1.70;;;;;;;;;;5442579;26;19994;-64
2024/04/20 11:41:32;;;;;;;2.05;1.85;;;;;;;;;;5428545;26;20007;-64
2024/04/20 11:44:06;;;;;;;4.07;2.22;;;;;;;;;;5388148;26;20007;-64
2024/04/20 11:46:38;;;;;;;1.80;1.65;;;;;;;;;;5396725;26;19994;-69
2024/04/20 11:49:14;;;;;;;2.00;1.80;;;;;;;;;;5433928;26;20331;-70
2024/04/20 11:54:25;;;;;;;2.22;2.03;;;;;;;;;;5431001;26;20099;-70
2024/04/20 11:56:55;;;;;;;3.25;1.60;;;;;;;;;;5424120;26;20017;-73
2024/04/20 11:59:24;;;;;;;1.75;1.65;;;;;;;;;;5399917;26;20039;-72
2024/04/20 12:01:51;;;;;;;1.80;1.70;;;;;;;;;;5433381;26;19995;-73
2024/04/20 12:04:18;;;;;;;2.45;1.70;;;;;;;;;;5433686;26;19999;-73
2024/04/20 12:06:44;;;;;;;2.00;1.70;;;;;;;;;;5393865;26;20062;-73
2024/04/20 12:09:10;;;;;;;2.05;1.90;;;;;;;;;;5422314;26;20014;-73
2024/04/20 12:11:39;;;;;;;2.17;1.90;;;;;;;;;;5417500;26;19999;-73
2024/04/20 12:14:05;;;;;;;2.45;1.83;;;;;;;;;;5390165;26;20002;-73
2024/04/20 12:16:33;;;;;;;2.13;1.92;;;;;;;;;;5425401;26;20000;-72
2024/04/20 12:18:59;;;;;;;2.85;1.92;;;;;;;;;;5435291;26;20018;-72
2024/04/20 12:21:26;;;;;;;2.28;1.80;;;;;;;;;;5421098;26;20010;-71
2024/04/20 12:23:52;;;;;;;1.65;1.55;;;;;;;;;;5416256;26;20449;-71
2024/04/20 12:26:18;;;;;;;1.70;1.60;;;;;;;;;;5384891;26;20122;-72
2024/04/20 12:28:44;;;;;;;4.50;1.73;;;;;;;;;;5421492;26;20021;-72
2024/04/20 12:31:11;;;;;;;2.10;1.90;;;;;;;;;;5405395;26;19998;-70
2024/04/20 12:33:38;;;;;;;2.08;1.58;;;;;;;;;;5450727;26;20013;-69
2024/04/20 12:36:12;;;;;;;2.50;1.80;;;;;;;;;;5423725;26;20014;-69
2024/04/20 12:38:39;;;;;;;1.80;1.70;;;;;;;;;;5419808;26;20010;-72
2024/04/20 12:41:07;;;;;;;1.98;1.83;;;;;;;;;;5441794;26;20535;-74
2024/04/20 12:43:33;;;;;;;2.13;1.75;;;;;;;;;;5427844;26;20350;-73
2024/04/20 12:45:59;;;;;;;3.75;1.70;;;;;;;;;;5431171;26;20027;-69
2024/04/20 12:48:27;;;;;;;2.45;1.83;;;;;;;;;;5402909;26;20064;-70
2024/04/20 12:50:55;;;;;;;1.92;1.70;;;;;;;;;;5421188;26;22063;-70
2024/04/20 12:53:21;;;;;;;1.77;1.67;;;;;;;;;;5389446;26;20021;-71
2024/04/20 12:55:47;;;;;;;3.63;2.15;;;;;;;;;;5420589;26;20040;-70
2024/04/20 12:58:13;;;;;;;4.55;1.80;;;;;;;;;;5428759;26;20588;-71
2024/04/20 13:00:39;;;;;;;3.78;1.70;;;;;;;;;;5426956;26;20010;-71
2024/04/20 13:03:06;;;;;;;1.88;1.75;;;;;;;;;;5422711;26;20025;-69
2024/04/20 13:05:32;;;;;;;2.67;2.08;;;;;;;;;;5426177;26;20006;-70
2024/04/20 13:07:58;;;;;;;3.83;1.90;;;;;;;;;;5426437;26;20010;-70
2024/04/20 13:10:24;;;;;;;2.47;1.73;;;;;;;;;;5433473;26;19998;-70
2024/04/20 13:12:51;;;;;;;2.67;1.92;;;;;;;;;;5443432;26;20402;-69
2024/04/20 13:15:19;;;;;;;2.80;1.60;;;;;;;;;;5421283;26;19991;-70
2024/04/20 13:17:46;;;;;;;3.50;2.50;;;;;;;;;;5446045;26;20452;-69
2024/04/20 13:20:13;;;;;;;2.80;1.75;;;;;;;;;;5442917;26;19998;-65
2024/04/20 13:22:39;;;;;;;4.43;1.90;;;;;;;;;;5432270;26;20003;-65
2024/04/20 13:25:05;;;;;;;2.92;1.80;;;;;;;;;;5429911;26;20066;-67
2024/04/20 13:27:31;;;;;;;1.83;1.70;;;;;;;;;;5435027;26;20026;-65
2024/04/20 13:29:58;;;;;;;2.15;1.70;;;;;;;;;;5431013;26;20003;-65
2024/04/20 13:32:24;;;;;;;4.45;2.10;;;;;;;;;;5428560;26;20007;-65
2024/04/20 13:34:56;;;;;;;2.63;1.63;;;;;;;;;;5413913;26;20039;-65
2024/04/20 13:37:23;;;;;;;4.22;1.90;;;;;;;;;;5417143;26;20908;-66
2024/04/20 13:39:49;;;;;;;2.15;1.95;;;;;;;;;;5391707;26;20018;-70
2024/04/20 13:42:19;;;;;;;4.45;2.13;;;;;;;;;;5413879;26;20009;-70
2024/04/20 13:44:47;;;;;;;3.25;1.63;;;;;;;;;;5424459;26;20010;-70
2024/04/20 13:47:15;;;;;;;6.03;2.10;;;;;;;;;;5419481;26;20482;-70
2024/04/20 13:49:41;;;;;;;2.28;1.67;;;;;;;;;;5423355;26;20003;-71
2024/04/20 13:52:07;;;;;;;2.83;1.70;;;;;;;;;;5418793;26;20011;-66
2024/04/20 13:54:33;;;;;;;2.90;1.67;;;;;;;;;;5424593;26;20013;-66
2024/04/20 13:56:59;;;;;;;2.85;1.60;;;;;;;;;;5386995;26;20013;-66
2024/04/20 13:59:26;;;;;;;3.22;1.80;;;;;;;;;;5420943;26;20334;-66
2024/04/20 14:01:54;;;;;;;2.15;1.80;;;;;;;;;;5438382;26;20347;-70
2024/04/20 14:04:21;;;;;;;2.28;1.98;;;;;;;;;;5418957;26;20027;-66
2024/04/20 14:06:47;;;;;;;2.88;1.83;;;;;;;;;;5414207;26;20702;-66
2024/04/20 14:09:14;;;;;;;2.97;1.80;;;;;;;;;;5414821;26;20010;-66
2024/04/20 14:11:40;;;;;;;3.10;1.67;;;;;;;;;;5386198;26;20409;-66
2024/04/20 14:14:11;;;;;;;2.60;2.10;;;;;;;;;;5422969;26;20010;-66
2024/04/20 14:16:42;;;;;;;4.15;1.60;;;;;;;;;;5438782;26;19995;-70
2024/04/20 14:19:19;;;;;;;4.03;1.60;;;;;;;;;;5440589;26;20085;-70
2024/04/20 14:21:49;;;;;;;;;;;;;;;;;;5404567;26;20310;-71
2024/04/20 14:24:16;;;;;;;3.90;2.00;;;;;;;;;;5406432;26;19983;-66
2024/04/20 14:26:45;;;;;;;3.53;1.50;;;;;;;;;;5405175;26;20018;-71
2024/04/20 14:29:17;;;;;;;1.95;1.60;;;;;;;;;;5423952;26;20011;-66
2024/04/20 14:31:44;;;;;;;3.38;1.73;;;;;;;;;;5396117;26;20215;-66
2024/04/20 14:34:11;;;;;;;1.65;1.30;;;;;;;;;;5431711;26;20026;-73
2024/04/20 14:36:40;;;;;;;2.00;1.55;;;;;;;;;;5418953;26;20934;-70
2024/04/20 14:39:06;;;;;;;1.90;1.50;;;;;;;;;;5427324;26;20014;-69
2024/04/20 14:41:33;;;;;;;2.75;1.42;;;;;;;;;;5402082;26;19991;-70
2024/04/20 14:43:59;;;;;;;1.80;1.48;;;;;;;;;;5423091;26;20734;-70